createdAt,value
2018-07-27T00:00:47.267Z,26.29
2018-07-27T00:05:39.853Z,26.23
2018-07-27T00:10:32.505Z,26.18
2018-07-27T00:15:25.074Z,26.11
2018-07-27T00:20:17.636Z,26.07
2018-07-27T00:25:10.183Z,25.98
2018-07-27T00:30:03.203Z,25.87
2018-07-27T00:34:55.812Z,25.81
2018-07-27T00:39:48.665Z,25.68
2018-07-27T00:44:41.290Z,25.63
2018-07-27T00:49:33.863Z,25.57
2018-07-27T00:54:26.470Z,25.49
2018-07-27T00:59:19.070Z,25.41
2018-07-27T01:04:11.767Z,25.32
2018-07-27T01:09:07.343Z,25.28
2018-07-27T01:13:59.982Z,25.23
2018-07-27T01:18:52.556Z,25.14
2018-07-27T01:23:45.145Z,25.04
2018-07-27T01:28:37.689Z,24.92
2018-07-27T01:33:30.281Z,24.85
2018-07-27T01:38:22.809Z,24.86
2018-07-27T01:43:15.414Z,24.85
2018-07-27T01:48:08.044Z,24.83
2018-07-27T01:53:00.644Z,24.72
2018-07-27T01:57:53.265Z,24.66
2018-07-27T02:02:45.850Z,24.54
2018-07-27T02:07:38.495Z,24.41
2018-07-27T02:12:31.104Z,24.23
2018-07-27T02:17:23.713Z,24.16
2018-07-27T02:22:16.323Z,24.13
2018-07-27T02:27:08.907Z,24.11
2018-07-27T02:32:01.545Z,24.05
2018-07-27T02:36:54.131Z,24.02
2018-07-27T02:41:46.754Z,24.03
2018-07-27T02:46:39.419Z,24.05
2018-07-27T02:51:32.031Z,24.02
2018-07-27T02:56:24.655Z,23.91
2018-07-27T03:01:17.198Z,23.81
2018-07-27T03:06:09.806Z,23.72
2018-07-27T03:11:02.463Z,23.64
2018-07-27T03:15:55.184Z,23.67
2018-07-27T03:20:47.787Z,23.67
2018-07-27T03:25:40.398Z,23.67
2018-07-27T03:30:32.966Z,23.58
2018-07-27T03:35:25.544Z,23.56
2018-07-27T03:40:18.153Z,23.56
2018-07-27T03:45:10.762Z,23.54
2018-07-27T03:50:03.899Z,23.51
2018-07-27T03:54:56.490Z,23.49
2018-07-27T03:59:49.105Z,23.52
2018-07-27T04:04:41.773Z,23.59
2018-07-27T04:09:34.485Z,23.64
2018-07-27T04:14:27.975Z,23.67
2018-07-27T04:19:20.885Z,23.65
2018-07-27T04:24:13.767Z,23.71
2018-07-27T04:29:06.391Z,23.85
2018-07-27T04:33:58.994Z,23.99
2018-07-27T04:38:51.627Z,24.14
2018-07-27T04:43:44.518Z,24.24
2018-07-27T04:48:37.291Z,24.30
2018-07-27T04:53:29.926Z,24.37
2018-07-27T04:58:22.659Z,24.42
2018-07-27T05:03:15.303Z,24.49
2018-07-27T05:08:07.939Z,24.52
2018-07-27T05:13:00.667Z,24.54
2018-07-27T05:17:53.393Z,24.59
2018-07-27T05:22:46.158Z,24.68
2018-07-27T05:27:38.817Z,24.76
2018-07-27T05:32:31.426Z,24.83
2018-07-27T05:37:24.054Z,24.90
2018-07-27T05:42:16.848Z,24.97
2018-07-27T05:47:09.540Z,25.04
2018-07-27T05:52:02.184Z,25.11
2018-07-27T05:56:54.952Z,25.15
2018-07-27T06:01:47.551Z,25.18
2018-07-27T06:06:40.232Z,25.21
2018-07-27T06:11:33.021Z,25.27
2018-07-27T06:16:25.705Z,25.32
2018-07-27T06:21:18.723Z,25.35
2018-07-27T06:26:11.455Z,25.38
2018-07-27T06:31:04.227Z,25.42
2018-07-27T06:35:56.875Z,25.43
2018-07-27T06:40:49.532Z,25.46
2018-07-27T06:45:43.453Z,25.45
2018-07-27T06:50:36.126Z,25.46
2018-07-27T06:55:29.110Z,25.50
2018-07-27T07:00:21.823Z,25.54
2018-07-27T07:05:14.465Z,25.58
2018-07-27T07:10:07.147Z,25.66
2018-07-27T07:14:59.965Z,25.81
2018-07-27T07:19:52.530Z,26.54
2018-07-27T07:24:45.187Z,28.23
2018-07-27T07:29:37.775Z,29.60
2018-07-27T07:34:30.423Z,30.16
2018-07-27T07:39:23.372Z,30.80
2018-07-27T07:44:16.033Z,30.37
2018-07-27T07:49:08.716Z,29.73
2018-07-27T07:54:01.642Z,29.30
2018-07-27T07:58:54.664Z,29.00
2018-07-27T08:03:47.251Z,28.77
2018-07-27T08:08:40.029Z,28.65
2018-07-27T08:13:32.686Z,28.56
2018-07-27T08:18:25.332Z,28.49
2018-07-27T08:23:18.083Z,28.44
2018-07-27T08:28:28.199Z,28.46
2018-07-27T08:33:20.892Z,28.49
2018-07-27T08:38:13.514Z,28.52
2018-07-27T08:43:06.384Z,28.60
2018-07-27T08:47:59.186Z,28.73
2018-07-27T08:52:51.914Z,28.82
2018-07-27T08:57:44.665Z,28.86
2018-07-27T09:02:37.373Z,28.81
2018-07-27T09:07:29.980Z,28.74
2018-07-27T09:12:22.679Z,28.68
2018-07-27T09:17:15.373Z,28.68
2018-07-27T09:22:08.018Z,28.76
2018-07-27T09:27:00.616Z,28.76
2018-07-27T09:31:53.226Z,28.74
2018-07-27T09:36:45.865Z,28.80
2018-07-27T09:41:38.458Z,28.99
2018-07-27T09:46:31.057Z,29.02
2018-07-27T09:51:24.283Z,29.13
2018-07-27T09:56:16.961Z,29.34
2018-07-27T10:01:15.342Z,29.49
2018-07-27T10:06:08.102Z,29.67
2018-07-27T10:11:00.675Z,29.81
2018-07-27T10:15:53.314Z,29.92
2018-07-27T10:20:45.833Z,29.97
2018-07-27T10:25:38.556Z,30.07
2018-07-27T10:30:31.861Z,30.03
2018-07-27T10:35:24.503Z,30.18
2018-07-27T10:40:17.147Z,30.34
2018-07-27T10:45:09.841Z,30.48
2018-07-27T10:50:02.430Z,30.57
2018-07-27T10:54:55.063Z,30.58
2018-07-27T10:59:47.691Z,30.76
2018-07-27T11:04:40.201Z,30.96
2018-07-27T11:09:32.890Z,31.04
2018-07-27T11:14:25.461Z,31.11
2018-07-27T11:19:18.148Z,31.22
2018-07-27T11:24:10.921Z,31.26
2018-07-27T11:29:03.710Z,31.33
2018-07-27T11:33:56.407Z,31.39
2018-07-27T11:38:49.063Z,31.37
2018-07-27T11:43:42.010Z,31.19
2018-07-27T11:48:34.740Z,30.93
2018-07-27T11:53:27.516Z,30.83
2018-07-27T11:58:20.154Z,31.14
2018-07-27T12:03:12.823Z,31.28
2018-07-27T12:08:05.453Z,31.41
2018-07-27T12:12:58.053Z,31.67
2018-07-27T12:17:50.704Z,31.82
2018-07-27T12:22:43.521Z,32.01
2018-07-27T12:27:36.175Z,32.15
2018-07-27T12:32:28.958Z,32.32
2018-07-27T12:37:21.617Z,32.36
2018-07-27T12:42:14.318Z,32.52
2018-07-27T12:47:09.114Z,32.64
2018-07-27T12:52:01.881Z,32.69
2018-07-27T12:56:54.573Z,32.76
2018-07-27T13:01:47.304Z,32.84
2018-07-27T13:06:42.900Z,32.93
2018-07-27T13:11:35.797Z,33.00
2018-07-27T13:16:28.492Z,32.93
2018-07-27T13:21:22.030Z,32.81
2018-07-27T13:31:08.777Z,32.93
2018-07-27T13:40:55.453Z,33.31
2018-07-27T13:45:48.122Z,33.34
2018-07-27T13:50:40.990Z,33.45
2018-07-27T13:55:33.588Z,33.55
2018-07-27T14:00:26.232Z,33.64
2018-07-27T14:05:19.169Z,33.60
2018-07-27T14:10:11.993Z,33.53
2018-07-27T14:15:04.657Z,33.56
2018-07-27T14:19:57.361Z,33.58
2018-07-27T14:24:50.063Z,33.67
2018-07-27T14:29:42.689Z,33.79
2018-07-27T14:34:35.390Z,33.83
2018-07-27T14:39:27.989Z,33.74
2018-07-27T14:44:20.747Z,33.60
2018-07-27T14:49:14.791Z,33.51
2018-07-27T14:54:08.573Z,33.52
2018-07-27T14:59:01.267Z,33.59
2018-07-27T15:03:53.920Z,33.62
2018-07-27T15:08:46.968Z,33.69
2018-07-27T15:13:39.605Z,33.73
2018-07-27T15:18:32.388Z,33.67
2018-07-27T15:23:25.196Z,33.68
2018-07-27T15:28:17.890Z,33.70
2018-07-27T15:33:10.691Z,33.74
2018-07-27T15:38:03.309Z,33.73
2018-07-27T15:42:56.054Z,33.67
2018-07-27T15:47:48.624Z,33.65
2018-07-27T15:52:41.202Z,33.65
2018-07-27T15:57:33.792Z,33.57
2018-07-27T16:02:26.616Z,33.53
2018-07-27T16:07:19.396Z,33.48
2018-07-27T16:12:12.119Z,33.42
2018-07-27T16:17:04.794Z,33.37
2018-07-27T16:21:58.117Z,33.30
2018-07-27T16:26:50.794Z,33.12
2018-07-27T16:31:43.404Z,33.12
2018-07-27T16:36:35.985Z,32.98
2018-07-27T16:41:28.544Z,32.87
2018-07-27T16:46:21.171Z,32.80
2018-07-27T16:51:13.877Z,32.71
2018-07-27T16:56:06.711Z,32.57
2018-07-27T17:00:59.341Z,32.51
2018-07-27T17:05:51.925Z,32.50
2018-07-27T17:10:44.483Z,32.47
2018-07-27T17:15:37.181Z,32.42
2018-07-27T17:20:29.709Z,32.35
2018-07-27T17:25:22.339Z,32.24
2018-07-27T17:30:14.922Z,32.18
2018-07-27T17:35:07.580Z,32.10
2018-07-27T17:40:00.201Z,32.02
2018-07-27T17:44:52.764Z,31.95
2018-07-27T17:49:45.324Z,31.85
2018-07-27T17:54:37.899Z,31.76
2018-07-27T17:59:30.554Z,31.68
2018-07-27T18:04:23.270Z,31.58
2018-07-27T18:09:16.060Z,31.48
2018-07-27T18:14:08.948Z,31.40
2018-07-27T18:19:01.642Z,31.35
2018-07-27T18:23:54.191Z,31.30
2018-07-27T18:28:46.852Z,31.23
2018-07-27T18:33:39.374Z,31.12
2018-07-27T18:38:31.998Z,31.01
2018-07-27T18:43:24.667Z,30.95
2018-07-27T18:48:17.219Z,30.91
2018-07-27T18:53:09.777Z,30.88
2018-07-27T18:58:02.331Z,30.82
2018-07-27T19:02:54.973Z,30.75
2018-07-27T19:07:47.600Z,30.67
2018-07-27T19:12:40.173Z,30.56
2018-07-27T19:17:32.674Z,30.53
2018-07-27T19:22:25.256Z,30.47
2018-07-27T19:27:17.919Z,30.38
2018-07-27T19:32:10.541Z,30.32
2018-07-27T19:37:03.078Z,30.27
2018-07-27T19:41:55.881Z,30.16
2018-07-27T19:46:48.663Z,30.07
2018-07-27T19:51:41.386Z,30.00
2018-07-27T19:56:33.978Z,29.95
2018-07-27T20:01:26.618Z,29.94
2018-07-27T20:06:19.311Z,29.86
2018-07-27T20:11:11.918Z,29.86
2018-07-27T20:16:04.660Z,29.83
2018-07-27T20:20:57.407Z,29.77
2018-07-27T20:25:51.066Z,29.72
2018-07-27T20:30:43.654Z,29.67
2018-07-27T20:35:36.348Z,29.62
2018-07-27T20:40:29.035Z,29.47
2018-07-27T20:45:21.799Z,29.20
2018-07-27T20:50:14.359Z,28.94
2018-07-27T20:55:07.032Z,28.76
2018-07-27T20:59:59.599Z,28.65
2018-07-27T21:04:52.222Z,28.60
2018-07-27T21:09:44.911Z,28.48
2018-07-27T21:14:37.487Z,28.37
2018-07-27T21:19:30.181Z,28.20
2018-07-27T21:24:24.006Z,28.05
2018-07-27T21:29:16.662Z,27.96
2018-07-27T21:34:09.275Z,27.94
2018-07-27T21:39:02.051Z,27.91
2018-07-27T21:43:55.008Z,27.89
2018-07-27T21:48:47.944Z,27.81
2018-07-27T21:53:40.479Z,27.74
2018-07-27T21:58:33.107Z,27.73
2018-07-27T22:03:25.837Z,27.73
2018-07-27T22:08:18.695Z,27.69
2018-07-27T22:13:11.429Z,27.67
2018-07-27T22:18:04.359Z,27.63
2018-07-27T22:22:57.776Z,27.59
2018-07-27T22:27:50.529Z,27.52
2018-07-27T22:32:43.148Z,27.47
2018-07-27T22:37:36.676Z,27.44
2018-07-27T22:42:29.539Z,27.40
2018-07-27T22:47:22.057Z,27.38
2018-07-27T22:52:14.630Z,27.34
2018-07-27T22:57:07.317Z,27.28
2018-07-27T23:02:00.030Z,27.23
2018-07-27T23:06:52.686Z,27.20
2018-07-27T23:11:45.284Z,27.11
2018-07-27T23:16:37.962Z,26.99
2018-07-27T23:21:30.517Z,26.90
2018-07-27T23:26:23.120Z,26.81
2018-07-27T23:31:15.729Z,26.75
2018-07-27T23:36:08.510Z,26.71
2018-07-27T23:41:01.115Z,26.69
2018-07-27T23:45:53.854Z,26.65
2018-07-27T23:50:46.468Z,26.63
2018-07-27T23:55:39.086Z,26.62
